sensor_id;sensor_type;location;lat;lon;timestamp;P1;durP1;ratioP1;P2;durP2;ratioP2
77591;SDS011;66891;46.884;17.436;2023-01-26T00:01:13;50.33;;;20.50;;
77591;SDS011;66891;46.884;17.436;2023-01-26T00:03:42;53.67;;;21.33;;
77591;SDS011;66891;46.884;17.436;2023-01-26T00:06:10;50.65;;;20.10;;
77591;SDS011;66891;46.884;17.436;2023-01-26T00:08:40;52.53;;;20.52;;
77591;SDS011;66891;46.884;17.436;2023-01-26T00:11:11;57.47;;;22.57;;
77591;SDS011;66891;46.884;17.436;2023-01-26T00:13:40;55.85;;;20.35;;
77591;SDS011;66891;46.884;17.436;2023-01-26T00:16:08;53.78;;;21.08;;
77591;SDS011;66891;46.884;17.436;2023-01-26T00:18:38;54.08;;;21.67;;
77591;SDS011;66891;46.884;17.436;2023-01-26T00:21:07;58.20;;;21.92;;
77591;SDS011;66891;46.884;17.436;2023-01-26T00:23:36;62.63;;;26.45;;
77591;SDS011;66891;46.884;17.436;2023-01-26T00:26:04;61.72;;;25.30;;
77591;SDS011;66891;46.884;17.436;2023-01-26T00:28:34;64.85;;;25.58;;
77591;SDS011;66891;46.884;17.436;2023-01-26T00:31:01;67.13;;;26.35;;
77591;SDS011;66891;46.884;17.436;2023-01-26T00:33:30;62.38;;;26.08;;
77591;SDS011;66891;46.884;17.436;2023-01-26T00:35:57;65.55;;;25.85;;
77591;SDS011;66891;46.884;17.436;2023-01-26T00:38:25;67.20;;;26.65;;
77591;SDS011;66891;46.884;17.436;2023-01-26T00:40:52;66.95;;;25.83;;
77591;SDS011;66891;46.884;17.436;2023-01-26T00:43:20;67.88;;;26.23;;
77591;SDS011;66891;46.884;17.436;2023-01-26T00:45:49;64.53;;;27.23;;
77591;SDS011;66891;46.884;17.436;2023-01-26T00:48:16;64.10;;;24.70;;
77591;SDS011;66891;46.884;17.436;2023-01-26T00:50:44;57.67;;;24.45;;
77591;SDS011;66891;46.884;17.436;2023-01-26T00:53:11;54.33;;;22.48;;
77591;SDS011;66891;46.884;17.436;2023-01-26T00:55:39;54.40;;;21.38;;
77591;SDS011;66891;46.884;17.436;2023-01-26T00:58:07;43.80;;;18.85;;
77591;SDS011;66891;46.884;17.436;2023-01-26T01:00:37;50.85;;;19.42;;
77591;SDS011;66891;46.884;17.436;2023-01-26T01:03:06;40.50;;;17.73;;
77591;SDS011;66891;46.884;17.436;2023-01-26T01:05:34;46.92;;;18.40;;
77591;SDS011;66891;46.884;17.436;2023-01-26T01:08:01;48.42;;;18.70;;
77591;SDS011;66891;46.884;17.436;2023-01-26T01:11:34;49.80;;;19.58;;
77591;SDS011;66891;46.884;17.436;2023-01-26T01:13:31;46.63;;;18.13;;
77591;SDS011;66891;46.884;17.436;2023-01-26T01:15:58;45.97;;;17.33;;
77591;SDS011;66891;46.884;17.436;2023-01-26T01:18:27;42.90;;;17.02;;
77591;SDS011;66891;46.884;17.436;2023-01-26T01:20:55;45.53;;;19.08;;
77591;SDS011;66891;46.884;17.436;2023-01-26T01:23:23;48.50;;;20.15;;
77591;SDS011;66891;46.884;17.436;2023-01-26T01:25:56;54.72;;;20.63;;
77591;SDS011;66891;46.884;17.436;2023-01-26T01:28:24;51.10;;;20.30;;
77591;SDS011;66891;46.884;17.436;2023-01-26T01:30:53;49.88;;;19.20;;
77591;SDS011;66891;46.884;17.436;2023-01-26T01:33:21;46.15;;;18.63;;
77591;SDS011;66891;46.884;17.436;2023-01-26T01:35:57;50.60;;;19.23;;
77591;SDS011;66891;46.884;17.436;2023-01-26T01:38:25;47.05;;;18.77;;
77591;SDS011;66891;46.884;17.436;2023-01-26T01:40:52;48.70;;;19.13;;
77591;SDS011;66891;46.884;17.436;2023-01-26T01:43:21;46.65;;;17.75;;
77591;SDS011;66891;46.884;17.436;2023-01-26T01:45:50;50.25;;;18.38;;
77591;SDS011;66891;46.884;17.436;2023-01-26T01:48:19;47.63;;;18.17;;
77591;SDS011;66891;46.884;17.436;2023-01-26T01:50:51;51.05;;;19.17;;
77591;SDS011;66891;46.884;17.436;2023-01-26T01:53:25;65.55;;;25.98;;
77591;SDS011;66891;46.884;17.436;2023-01-26T01:55:56;45.65;;;18.13;;
77591;SDS011;66891;46.884;17.436;2023-01-26T01:58:25;46.22;;;18.98;;
77591;SDS011;66891;46.884;17.436;2023-01-26T02:00:56;49.90;;;18.40;;
77591;SDS011;66891;46.884;17.436;2023-01-26T02:03:24;42.95;;;16.83;;
77591;SDS011;66891;46.884;17.436;2023-01-26T02:05:54;45.72;;;18.08;;
77591;SDS011;66891;46.884;17.436;2023-01-26T02:08:28;46.40;;;16.42;;
77591;SDS011;66891;46.884;17.436;2023-01-26T02:11:00;44.22;;;16.70;;
77591;SDS011;66891;46.884;17.436;2023-01-26T02:13:30;45.90;;;17.08;;
77591;SDS011;66891;46.884;17.436;2023-01-26T02:15:59;39.83;;;17.50;;
77591;SDS011;66891;46.884;17.436;2023-01-26T02:18:27;43.83;;;16.70;;
77591;SDS011;66891;46.884;17.436;2023-01-26T02:20:55;42.78;;;16.23;;
77591;SDS011;66891;46.884;17.436;2023-01-26T02:23:33;41.65;;;16.70;;
77591;SDS011;66891;46.884;17.436;2023-01-26T02:26:11;43.45;;;16.70;;
77591;SDS011;66891;46.884;17.436;2023-01-26T02:28:40;44.47;;;16.92;;
77591;SDS011;66891;46.884;17.436;2023-01-26T02:31:09;43.10;;;16.42;;
77591;SDS011;66891;46.884;17.436;2023-01-26T02:33:38;44.08;;;16.48;;
77591;SDS011;66891;46.884;17.436;2023-01-26T02:36:09;44.75;;;17.02;;
77591;SDS011;66891;46.884;17.436;2023-01-26T02:38:43;41.77;;;15.60;;
77591;SDS011;66891;46.884;17.436;2023-01-26T02:41:14;41.90;;;16.40;;
77591;SDS011;66891;46.884;17.436;2023-01-26T02:44:04;42.20;;;16.70;;
77591;SDS011;66891;46.884;17.436;2023-01-26T02:46:34;46.55;;;16.60;;
77591;SDS011;66891;46.884;17.436;2023-01-26T02:49:02;41.35;;;15.98;;
77591;SDS011;66891;46.884;17.436;2023-01-26T02:51:47;46.20;;;16.17;;
77591;SDS011;66891;46.884;17.436;2023-01-26T02:54:15;44.75;;;16.75;;
77591;SDS011;66891;46.884;17.436;2023-01-26T02:57:02;42.83;;;17.15;;
77591;SDS011;66891;46.884;17.436;2023-01-26T02:59:30;45.03;;;16.60;;
77591;SDS011;66891;46.884;17.436;2023-01-26T03:01:57;44.47;;;16.67;;
77591;SDS011;66891;46.884;17.436;2023-01-26T03:04:24;42.78;;;15.95;;
77591;SDS011;66891;46.884;17.436;2023-01-26T03:06:52;42.45;;;15.48;;
77591;SDS011;66891;46.884;17.436;2023-01-26T03:09:20;40.80;;;14.95;;
77591;SDS011;66891;46.884;17.436;2023-01-26T03:11:47;41.05;;;14.73;;
77591;SDS011;66891;46.884;17.436;2023-01-26T03:14:16;40.70;;;14.68;;
77591;SDS011;66891;46.884;17.436;2023-01-26T03:16:44;42.90;;;15.57;;
77591;SDS011;66891;46.884;17.436;2023-01-26T03:19:12;39.42;;;14.93;;
77591;SDS011;66891;46.884;17.436;2023-01-26T03:22:00;38.15;;;15.02;;
77591;SDS011;66891;46.884;17.436;2023-01-26T03:24:46;43.33;;;16.52;;
77591;SDS011;66891;46.884;17.436;2023-01-26T03:27:34;44.85;;;15.63;;
77591;SDS011;66891;46.884;17.436;2023-01-26T03:30:10;44.17;;;16.57;;
77591;SDS011;66891;46.884;17.436;2023-01-26T03:32:38;41.47;;;15.10;;
77591;SDS011;66891;46.884;17.436;2023-01-26T03:35:06;41.17;;;15.55;;
77591;SDS011;66891;46.884;17.436;2023-01-26T03:37:36;40.42;;;15.30;;
77591;SDS011;66891;46.884;17.436;2023-01-26T03:40:07;41.30;;;15.13;;
77591;SDS011;66891;46.884;17.436;2023-01-26T03:42:54;42.43;;;15.43;;
77591;SDS011;66891;46.884;17.436;2023-01-26T03:45:41;43.05;;;15.32;;
77591;SDS011;66891;46.884;17.436;2023-01-26T03:48:27;42.67;;;16.17;;
77591;SDS011;66891;46.884;17.436;2023-01-26T03:51:13;49.15;;;17.02;;
77591;SDS011;66891;46.884;17.436;2023-01-26T03:53:59;44.97;;;17.65;;
77591;SDS011;66891;46.884;17.436;2023-01-26T03:56:45;47.67;;;16.70;;
77591;SDS011;66891;46.884;17.436;2023-01-26T03:59:13;45.03;;;17.55;;
77591;SDS011;66891;46.884;17.436;2023-01-26T04:01:44;46.28;;;17.27;;
77591;SDS011;66891;46.884;17.436;2023-01-26T04:04:31;42.42;;;16.17;;
77591;SDS011;66891;46.884;17.436;2023-01-26T04:07:17;46.45;;;15.85;;
77591;SDS011;66891;46.884;17.436;2023-01-26T04:10:05;38.83;;;15.47;;
77591;SDS011;66891;46.884;17.436;2023-01-26T04:12:40;42.42;;;15.48;;
77591;SDS011;66891;46.884;17.436;2023-01-26T04:15:08;42.13;;;15.80;;
77591;SDS011;66891;46.884;17.436;2023-01-26T04:17:55;46.05;;;16.65;;
77591;SDS011;66891;46.884;17.436;2023-01-26T04:20:41;42.13;;;15.57;;
77591;SDS011;66891;46.884;17.436;2023-01-26T04:23:27;44.38;;;15.88;;
77591;SDS011;66891;46.884;17.436;2023-01-26T04:25:54;43.95;;;15.88;;
77591;SDS011;66891;46.884;17.436;2023-01-26T04:28:22;46.55;;;16.50;;
77591;SDS011;66891;46.884;17.436;2023-01-26T04:30:50;42.97;;;16.60;;
77591;SDS011;66891;46.884;17.436;2023-01-26T04:33:19;45.05;;;15.13;;
77591;SDS011;66891;46.884;17.436;2023-01-26T04:35:47;44.17;;;16.45;;
77591;SDS011;66891;46.884;17.436;2023-01-26T04:38:14;41.88;;;16.50;;
77591;SDS011;66891;46.884;17.436;2023-01-26T04:40:43;44.97;;;15.48;;
77591;SDS011;66891;46.884;17.436;2023-01-26T04:43:10;42.58;;;14.68;;
77591;SDS011;66891;46.884;17.436;2023-01-26T04:45:37;43.33;;;14.55;;
77591;SDS011;66891;46.884;17.436;2023-01-26T04:48:05;44.05;;;16.20;;
77591;SDS011;66891;46.884;17.436;2023-01-26T04:50:34;45.40;;;15.95;;
77591;SDS011;66891;46.884;17.436;2023-01-26T04:53:01;43.78;;;15.60;;
77591;SDS011;66891;46.884;17.436;2023-01-26T04:55:29;44.08;;;15.20;;
77591;SDS011;66891;46.884;17.436;2023-01-26T04:57:56;40.63;;;16.02;;
77591;SDS011;66891;46.884;17.436;2023-01-26T05:00:25;40.88;;;15.57;;
77591;SDS011;66891;46.884;17.436;2023-01-26T05:02:52;42.03;;;14.60;;
77591;SDS011;66891;46.884;17.436;2023-01-26T05:05:20;45.85;;;16.20;;
77591;SDS011;66891;46.884;17.436;2023-01-26T05:07:48;42.97;;;14.68;;
77591;SDS011;66891;46.884;17.436;2023-01-26T05:10:16;40.17;;;14.98;;
77591;SDS011;66891;46.884;17.436;2023-01-26T05:12:43;42.97;;;14.82;;
77591;SDS011;66891;46.884;17.436;2023-01-26T05:15:11;46.53;;;16.33;;
77591;SDS011;66891;46.884;17.436;2023-01-26T05:17:38;47.72;;;16.00;;
77591;SDS011;66891;46.884;17.436;2023-01-26T05:20:06;48.50;;;16.02;;
77591;SDS011;66891;46.884;17.436;2023-01-26T05:22:38;47.05;;;15.80;;
77591;SDS011;66891;46.884;17.436;2023-01-26T05:25:08;45.67;;;15.80;;
77591;SDS011;66891;46.884;17.436;2023-01-26T05:27:37;44.47;;;15.23;;
77591;SDS011;66891;46.884;17.436;2023-01-26T05:30:04;44.50;;;15.35;;
77591;SDS011;66891;46.884;17.436;2023-01-26T05:32:33;45.33;;;15.52;;
77591;SDS011;66891;46.884;17.436;2023-01-26T05:35:01;40.72;;;14.93;;
77591;SDS011;66891;46.884;17.436;2023-01-26T05:37:29;44.30;;;16.08;;
77591;SDS011;66891;46.884;17.436;2023-01-26T05:39:58;41.20;;;14.90;;
77591;SDS011;66891;46.884;17.436;2023-01-26T05:42:27;44.75;;;15.38;;
77591;SDS011;66891;46.884;17.436;2023-01-26T05:44:55;42.90;;;14.32;;
77591;SDS011;66891;46.884;17.436;2023-01-26T05:47:22;45.58;;;15.35;;
77591;SDS011;66891;46.884;17.436;2023-01-26T05:49:50;48.43;;;16.00;;
77591;SDS011;66891;46.884;17.436;2023-01-26T05:52:18;48.63;;;16.63;;
77591;SDS011;66891;46.884;17.436;2023-01-26T05:54:46;42.30;;;15.73;;
77591;SDS011;66891;46.884;17.436;2023-01-26T05:57:14;43.22;;;16.35;;
77591;SDS011;66891;46.884;17.436;2023-01-26T05:59:44;44.38;;;15.52;;
77591;SDS011;66891;46.884;17.436;2023-01-26T06:02:11;51.67;;;19.20;;
77591;SDS011;66891;46.884;17.436;2023-01-26T06:04:39;47.25;;;17.65;;
77591;SDS011;66891;46.884;17.436;2023-01-26T06:07:06;43.70;;;16.65;;
77591;SDS011;66891;46.884;17.436;2023-01-26T06:09:34;38.67;;;14.70;;
77591;SDS011;66891;46.884;17.436;2023-01-26T06:12:01;42.92;;;15.55;;
77591;SDS011;66891;46.884;17.436;2023-01-26T06:14:29;41.60;;;15.53;;
77591;SDS011;66891;46.884;17.436;2023-01-26T06:16:58;41.53;;;14.38;;
77591;SDS011;66891;46.884;17.436;2023-01-26T06:19:26;42.85;;;14.38;;
77591;SDS011;66891;46.884;17.436;2023-01-26T06:21:54;41.60;;;15.35;;
77591;SDS011;66891;46.884;17.436;2023-01-26T06:24:21;41.72;;;15.02;;
77591;SDS011;66891;46.884;17.436;2023-01-26T06:26:49;35.53;;;12.97;;
77591;SDS011;66891;46.884;17.436;2023-01-26T06:29:17;39.70;;;14.23;;
77591;SDS011;66891;46.884;17.436;2023-01-26T06:31:44;38.53;;;14.30;;
77591;SDS011;66891;46.884;17.436;2023-01-26T06:34:13;41.05;;;14.50;;
77591;SDS011;66891;46.884;17.436;2023-01-26T06:36:41;40.85;;;15.02;;
77591;SDS011;66891;46.884;17.436;2023-01-26T06:39:09;38.30;;;13.63;;
77591;SDS011;66891;46.884;17.436;2023-01-26T06:41:38;39.80;;;14.40;;
77591;SDS011;66891;46.884;17.436;2023-01-26T06:44:07;37.40;;;14.20;;
77591;SDS011;66891;46.884;17.436;2023-01-26T06:46:34;34.05;;;12.57;;
77591;SDS011;66891;46.884;17.436;2023-01-26T06:49:05;36.17;;;13.02;;
77591;SDS011;66891;46.884;17.436;2023-01-26T06:51:40;41.53;;;13.93;;
77591;SDS011;66891;46.884;17.436;2023-01-26T06:54:13;34.17;;;11.88;;
77591;SDS011;66891;46.884;17.436;2023-01-26T06:56:41;38.03;;;13.30;;
77591;SDS011;66891;46.884;17.436;2023-01-26T06:59:09;41.10;;;13.55;;
77591;SDS011;66891;46.884;17.436;2023-01-26T07:01:36;36.72;;;13.15;;
77591;SDS011;66891;46.884;17.436;2023-01-26T07:04:06;36.35;;;13.60;;
77591;SDS011;66891;46.884;17.436;2023-01-26T07:06:34;37.38;;;13.77;;
77591;SDS011;66891;46.884;17.436;2023-01-26T07:09:03;36.35;;;12.02;;
77591;SDS011;66891;46.884;17.436;2023-01-26T07:11:30;35.50;;;11.30;;
77591;SDS011;66891;46.884;17.436;2023-01-26T07:13:58;37.50;;;12.20;;
77591;SDS011;66891;46.884;17.436;2023-01-26T07:16:25;34.03;;;11.87;;
77591;SDS011;66891;46.884;17.436;2023-01-26T07:18:53;36.35;;;12.27;;
77591;SDS011;66891;46.884;17.436;2023-01-26T07:21:21;34.13;;;13.40;;
77591;SDS011;66891;46.884;17.436;2023-01-26T07:23:49;35.30;;;11.90;;
77591;SDS011;66891;46.884;17.436;2023-01-26T07:26:19;33.60;;;11.73;;
77591;SDS011;66891;46.884;17.436;2023-01-26T07:28:47;34.83;;;12.77;;
77591;SDS011;66891;46.884;17.436;2023-01-26T07:31:14;33.58;;;12.77;;
77591;SDS011;66891;46.884;17.436;2023-01-26T07:33:42;35.00;;;12.32;;
77591;SDS011;66891;46.884;17.436;2023-01-26T07:36:10;35.83;;;12.18;;
77591;SDS011;66891;46.884;17.436;2023-01-26T07:38:37;33.28;;;12.07;;
77591;SDS011;66891;46.884;17.436;2023-01-26T07:41:06;30.55;;;12.07;;
77591;SDS011;66891;46.884;17.436;2023-01-26T07:43:37;32.03;;;12.07;;
77591;SDS011;66891;46.884;17.436;2023-01-26T07:46:05;33.67;;;12.25;;
77591;SDS011;66891;46.884;17.436;2023-01-26T07:48:33;32.42;;;12.57;;
77591;SDS011;66891;46.884;17.436;2023-01-26T07:51:01;31.17;;;11.13;;
77591;SDS011;66891;46.884;17.436;2023-01-26T07:53:30;32.80;;;12.75;;
77591;SDS011;66891;46.884;17.436;2023-01-26T07:56:06;26.42;;;9.98;;
77591;SDS011;66891;46.884;17.436;2023-01-26T08:05:42;26.63;;;10.32;;
77591;SDS011;66891;46.884;17.436;2023-01-26T08:08:11;28.15;;;11.20;;
77591;SDS011;66891;46.884;17.436;2023-01-26T08:10:39;30.55;;;12.43;;
77591;SDS011;66891;46.884;17.436;2023-01-26T08:13:06;31.52;;;13.52;;
77591;SDS011;66891;46.884;17.436;2023-01-26T08:15:38;29.70;;;11.63;;
77591;SDS011;66891;46.884;17.436;2023-01-26T08:18:06;27.58;;;11.15;;
77591;SDS011;66891;46.884;17.436;2023-01-26T08:23:32;26.98;;;9.88;;
77591;SDS011;66891;46.884;17.436;2023-01-26T08:26:00;27.20;;;11.07;;
77591;SDS011;66891;46.884;17.436;2023-01-26T08:28:34;27.90;;;11.18;;
77591;SDS011;66891;46.884;17.436;2023-01-26T08:31:08;25.25;;;10.00;;
77591;SDS011;66891;46.884;17.436;2023-01-26T08:34:05;25.85;;;10.00;;
77591;SDS011;66891;46.884;17.436;2023-01-26T08:36:34;26.55;;;10.23;;
77591;SDS011;66891;46.884;17.436;2023-01-26T08:39:02;26.85;;;10.27;;
77591;SDS011;66891;46.884;17.436;2023-01-26T08:41:29;28.52;;;9.95;;
77591;SDS011;66891;46.884;17.436;2023-01-26T08:43:58;24.63;;;9.25;;
77591;SDS011;66891;46.884;17.436;2023-01-26T08:46:27;23.05;;;9.57;;
77591;SDS011;66891;46.884;17.436;2023-01-26T08:48:55;22.53;;;8.17;;
77591;SDS011;66891;46.884;17.436;2023-01-26T08:51:25;25.45;;;9.88;;
77591;SDS011;66891;46.884;17.436;2023-01-26T08:54:57;24.10;;;8.90;;
77591;SDS011;66891;46.884;17.436;2023-01-26T08:57:11;22.02;;;9.27;;
77591;SDS011;66891;46.884;17.436;2023-01-26T08:59:49;26.67;;;11.00;;
77591;SDS011;66891;46.884;17.436;2023-01-26T09:05:15;26.38;;;10.77;;
77591;SDS011;66891;46.884;17.436;2023-01-26T09:07:42;26.15;;;10.65;;
77591;SDS011;66891;46.884;17.436;2023-01-26T09:10:10;27.10;;;11.35;;
77591;SDS011;66891;46.884;17.436;2023-01-26T09:12:38;27.48;;;10.07;;
77591;SDS011;66891;46.884;17.436;2023-01-26T09:15:09;25.55;;;10.23;;
77591;SDS011;66891;46.884;17.436;2023-01-26T09:17:37;26.85;;;10.40;;
77591;SDS011;66891;46.884;17.436;2023-01-26T09:20:07;29.95;;;10.80;;
77591;SDS011;66891;46.884;17.436;2023-01-26T09:25:53;26.30;;;10.05;;
77591;SDS011;66891;46.884;17.436;2023-01-26T09:28:23;24.35;;;9.63;;
77591;SDS011;66891;46.884;17.436;2023-01-26T09:30:52;28.65;;;11.20;;
77591;SDS011;66891;46.884;17.436;2023-01-26T09:33:22;29.48;;;10.75;;
77591;SDS011;66891;46.884;17.436;2023-01-26T09:35:55;26.95;;;10.55;;
77591;SDS011;66891;46.884;17.436;2023-01-26T09:38:23;27.38;;;10.73;;
77591;SDS011;66891;46.884;17.436;2023-01-26T09:40:52;27.70;;;10.57;;
77591;SDS011;66891;46.884;17.436;2023-01-26T09:43:28;26.85;;;10.48;;
77591;SDS011;66891;46.884;17.436;2023-01-26T09:46:01;29.58;;;11.52;;
77591;SDS011;66891;46.884;17.436;2023-01-26T09:48:40;31.42;;;11.93;;
77591;SDS011;66891;46.884;17.436;2023-01-26T09:51:14;28.90;;;11.75;;
77591;SDS011;66891;46.884;17.436;2023-01-26T09:53:47;35.30;;;13.27;;
77591;SDS011;66891;46.884;17.436;2023-01-26T09:56:19;31.02;;;12.20;;
77591;SDS011;66891;46.884;17.436;2023-01-26T09:58:52;30.08;;;11.90;;
77591;SDS011;66891;46.884;17.436;2023-01-26T10:01:26;30.90;;;12.75;;
77591;SDS011;66891;46.884;17.436;2023-01-26T10:04:03;32.75;;;13.68;;
77591;SDS011;66891;46.884;17.436;2023-01-26T10:06:37;37.13;;;14.98;;
77591;SDS011;66891;46.884;17.436;2023-01-26T10:09:06;33.85;;;14.40;;
77591;SDS011;66891;46.884;17.436;2023-01-26T10:11:41;33.80;;;13.13;;
77591;SDS011;66891;46.884;17.436;2023-01-26T10:14:11;33.65;;;13.25;;
77591;SDS011;66891;46.884;17.436;2023-01-26T10:16:42;35.83;;;13.77;;
77591;SDS011;66891;46.884;17.436;2023-01-26T10:19:11;36.13;;;12.90;;
77591;SDS011;66891;46.884;17.436;2023-01-26T10:21:49;38.03;;;13.98;;
77591;SDS011;66891;46.884;17.436;2023-01-26T10:24:19;35.47;;;13.52;;
77591;SDS011;66891;46.884;17.436;2023-01-26T10:26:50;34.42;;;12.63;;
77591;SDS011;66891;46.884;17.436;2023-01-26T10:29:22;30.58;;;12.50;;
77591;SDS011;66891;46.884;17.436;2023-01-26T10:31:50;29.27;;;12.53;;
77591;SDS011;66891;46.884;17.436;2023-01-26T10:34:19;27.85;;;11.50;;
77591;SDS011;66891;46.884;17.436;2023-01-26T10:36:52;29.30;;;11.77;;
77591;SDS011;66891;46.884;17.436;2023-01-26T10:39:31;31.90;;;12.65;;
77591;SDS011;66891;46.884;17.436;2023-01-26T10:41:59;27.45;;;10.80;;
77591;SDS011;66891;46.884;17.436;2023-01-26T10:44:32;28.80;;;10.93;;
77591;SDS011;66891;46.884;17.436;2023-01-26T10:47:01;27.80;;;11.18;;
77591;SDS011;66891;46.884;17.436;2023-01-26T10:49:31;29.45;;;11.93;;
77591;SDS011;66891;46.884;17.436;2023-01-26T10:52:10;26.75;;;10.93;;
77591;SDS011;66891;46.884;17.436;2023-01-26T10:54:45;29.33;;;10.98;;
77591;SDS011;66891;46.884;17.436;2023-01-26T10:57:15;29.50;;;10.52;;
77591;SDS011;66891;46.884;17.436;2023-01-26T10:59:49;28.30;;;10.93;;
77591;SDS011;66891;46.884;17.436;2023-01-26T11:02:22;26.90;;;9.95;;
77591;SDS011;66891;46.884;17.436;2023-01-26T11:05:00;25.63;;;10.55;;
77591;SDS011;66891;46.884;17.436;2023-01-26T11:07:32;28.95;;;11.32;;
77591;SDS011;66891;46.884;17.436;2023-01-26T11:10:16;29.40;;;10.82;;
77591;SDS011;66891;46.884;17.436;2023-01-26T11:13:07;29.23;;;11.27;;
77591;SDS011;66891;46.884;17.436;2023-01-26T11:15:40;25.02;;;9.63;;
77591;SDS011;66891;46.884;17.436;2023-01-26T11:18:21;29.15;;;10.63;;
77591;SDS011;66891;46.884;17.436;2023-01-26T11:20:59;28.13;;;10.00;;
77591;SDS011;66891;46.884;17.436;2023-01-26T11:26:27;24.55;;;9.40;;
77591;SDS011;66891;46.884;17.436;2023-01-26T11:29:26;19.95;;;7.55;;
77591;SDS011;66891;46.884;17.436;2023-01-26T11:32:06;20.23;;;8.57;;
77591;SDS011;66891;46.884;17.436;2023-01-26T11:34:49;21.63;;;8.27;;
77591;SDS011;66891;46.884;17.436;2023-01-26T11:37:34;20.77;;;8.90;;
77591;SDS011;66891;46.884;17.436;2023-01-26T11:40:16;21.20;;;7.82;;
77591;SDS011;66891;46.884;17.436;2023-01-26T11:43:08;21.00;;;7.80;;
77591;SDS011;66891;46.884;17.436;2023-01-26T11:45:59;24.33;;;9.43;;
77591;SDS011;66891;46.884;17.436;2023-01-26T11:48:46;28.92;;;10.63;;
77591;SDS011;66891;46.884;17.436;2023-01-26T11:51:27;22.15;;;9.45;;
77591;SDS011;66891;46.884;17.436;2023-01-26T11:57:08;21.38;;;7.45;;
77591;SDS011;66891;46.884;17.436;2023-01-26T11:59:47;22.77;;;9.75;;
77591;SDS011;66891;46.884;17.436;2023-01-26T12:02:23;25.30;;;10.50;;
77591;SDS011;66891;46.884;17.436;2023-01-26T12:04:55;23.92;;;9.30;;
77591;SDS011;66891;46.884;17.436;2023-01-26T12:07:27;18.85;;;6.93;;
77591;SDS011;66891;46.884;17.436;2023-01-26T12:10:00;21.35;;;7.72;;
77591;SDS011;66891;46.884;17.436;2023-01-26T12:12:33;22.25;;;8.80;;
77591;SDS011;66891;46.884;17.436;2023-01-26T12:15:08;19.98;;;8.15;;
77591;SDS011;66891;46.884;17.436;2023-01-26T12:17:42;23.27;;;9.63;;
77591;SDS011;66891;46.884;17.436;2023-01-26T12:20:19;22.70;;;9.10;;
77591;SDS011;66891;46.884;17.436;2023-01-26T12:22:58;21.25;;;7.90;;
77591;SDS011;66891;46.884;17.436;2023-01-26T12:25:31;18.92;;;6.75;;
77591;SDS011;66891;46.884;17.436;2023-01-26T12:28:04;22.50;;;9.75;;
77591;SDS011;66891;46.884;17.436;2023-01-26T12:30:45;19.58;;;8.10;;
77591;SDS011;66891;46.884;17.436;2023-01-26T12:33:18;22.48;;;7.70;;
77591;SDS011;66891;46.884;17.436;2023-01-26T12:35:48;21.90;;;8.73;;
77591;SDS011;66891;46.884;17.436;2023-01-26T12:38:27;22.52;;;8.35;;
77591;SDS011;66891;46.884;17.436;2023-01-26T12:41:09;21.70;;;8.30;;
77591;SDS011;66891;46.884;17.436;2023-01-26T12:43:51;18.65;;;7.50;;
77591;SDS011;66891;46.884;17.436;2023-01-26T12:46:27;20.80;;;8.95;;
77591;SDS011;66891;46.884;17.436;2023-01-26T12:49:00;20.50;;;8.57;;
77591;SDS011;66891;46.884;17.436;2023-01-26T12:51:32;20.58;;;8.95;;
77591;SDS011;66891;46.884;17.436;2023-01-26T12:54:03;22.52;;;8.88;;
77591;SDS011;66891;46.884;17.436;2023-01-26T12:56:36;22.15;;;9.52;;
77591;SDS011;66891;46.884;17.436;2023-01-26T12:59:13;18.80;;;8.15;;
77591;SDS011;66891;46.884;17.436;2023-01-26T13:02:08;16.88;;;7.00;;
77591;SDS011;66891;46.884;17.436;2023-01-26T13:04:45;16.27;;;6.03;;
77591;SDS011;66891;46.884;17.436;2023-01-26T13:12:50;18.55;;;8.15;;
77591;SDS011;66891;46.884;17.436;2023-01-26T13:15:22;19.02;;;7.20;;
77591;SDS011;66891;46.884;17.436;2023-01-26T13:17:54;22.42;;;9.15;;
77591;SDS011;66891;46.884;17.436;2023-01-26T13:29:31;34.80;;;12.13;;
77591;SDS011;66891;46.884;17.436;2023-01-26T13:35:06;19.92;;;7.78;;
77591;SDS011;66891;46.884;17.436;2023-01-26T13:37:44;34.65;;;15.18;;
77591;SDS011;66891;46.884;17.436;2023-01-26T13:40:18;23.80;;;10.25;;
77591;SDS011;66891;46.884;17.436;2023-01-26T13:42:50;21.90;;;8.93;;
77591;SDS011;66891;46.884;17.436;2023-01-26T13:45:22;22.30;;;9.93;;
77591;SDS011;66891;46.884;17.436;2023-01-26T13:47:58;20.98;;;9.43;;
77591;SDS011;66891;46.884;17.436;2023-01-26T13:50:28;18.38;;;7.10;;
77591;SDS011;66891;46.884;17.436;2023-01-26T13:52:56;19.25;;;7.90;;
77591;SDS011;66891;46.884;17.436;2023-01-26T13:55:24;18.40;;;7.60;;
77591;SDS011;66891;46.884;17.436;2023-01-26T13:58:10;19.38;;;7.55;;
77591;SDS011;66891;46.884;17.436;2023-01-26T14:00:38;24.20;;;6.97;;
77591;SDS011;66891;46.884;17.436;2023-01-26T14:03:17;16.80;;;6.38;;
77591;SDS011;66891;46.884;17.436;2023-01-26T14:05:51;17.38;;;6.93;;
77591;SDS011;66891;46.884;17.436;2023-01-26T14:08:20;17.85;;;7.15;;
77591;SDS011;66891;46.884;17.436;2023-01-26T14:10:48;24.00;;;9.55;;
77591;SDS011;66891;46.884;17.436;2023-01-26T14:13:18;27.65;;;11.13;;
77591;SDS011;66891;46.884;17.436;2023-01-26T14:15:56;22.17;;;9.13;;
77591;SDS011;66891;46.884;17.436;2023-01-26T14:18:26;19.55;;;8.40;;
77591;SDS011;66891;46.884;17.436;2023-01-26T14:20:57;20.17;;;7.53;;
77591;SDS011;66891;46.884;17.436;2023-01-26T14:23:26;19.73;;;8.00;;
77591;SDS011;66891;46.884;17.436;2023-01-26T14:25:56;22.52;;;9.18;;
77591;SDS011;66891;46.884;17.436;2023-01-26T14:28:26;24.77;;;8.68;;
77591;SDS011;66891;46.884;17.436;2023-01-26T14:30:58;25.35;;;10.10;;
77591;SDS011;66891;46.884;17.436;2023-01-26T14:33:31;26.27;;;10.98;;
77591;SDS011;66891;46.884;17.436;2023-01-26T14:36:00;26.65;;;10.05;;
77591;SDS011;66891;46.884;17.436;2023-01-26T14:38:30;25.75;;;10.23;;
77591;SDS011;66891;46.884;17.436;2023-01-26T14:41:11;27.20;;;11.45;;
77591;SDS011;66891;46.884;17.436;2023-01-26T14:43:42;25.55;;;11.70;;
77591;SDS011;66891;46.884;17.436;2023-01-26T14:46:12;25.92;;;11.30;;
77591;SDS011;66891;46.884;17.436;2023-01-26T14:48:44;24.77;;;10.05;;
77591;SDS011;66891;46.884;17.436;2023-01-26T14:51:17;31.45;;;13.45;;
77591;SDS011;66891;46.884;17.436;2023-01-26T14:53:48;32.17;;;14.27;;
77591;SDS011;66891;46.884;17.436;2023-01-26T14:56:17;31.52;;;14.68;;
77591;SDS011;66891;46.884;17.436;2023-01-26T14:58:47;31.65;;;13.95;;
77591;SDS011;66891;46.884;17.436;2023-01-26T15:01:21;29.42;;;13.55;;
77591;SDS011;66891;46.884;17.436;2023-01-26T15:03:55;31.02;;;12.60;;
77591;SDS011;66891;46.884;17.436;2023-01-26T15:06:25;28.40;;;12.32;;
77591;SDS011;66891;46.884;17.436;2023-01-26T15:08:55;27.02;;;11.45;;
77591;SDS011;66891;46.884;17.436;2023-01-26T15:11:25;25.08;;;10.82;;
77591;SDS011;66891;46.884;17.436;2023-01-26T15:17:01;25.35;;;11.05;;
77591;SDS011;66891;46.884;17.436;2023-01-26T15:22:19;26.73;;;10.45;;
77591;SDS011;66891;46.884;17.436;2023-01-26T15:24:58;27.45;;;10.75;;